sensor_id;sensor_type;location;lat;lon;timestamp;P1;durP1;ratioP1;P2;durP2;ratioP2
10440;SDS011;5268;49.346;9.522;2023-02-28T04:06:52;4.83;;;3.47;;
10440;SDS011;5268;49.346;9.522;2023-02-28T04:12:03;4.07;;;3.40;;
10440;SDS011;5268;49.346;9.522;2023-02-28T04:17:05;5.60;;;4.00;;
10440;SDS011;5268;49.346;9.522;2023-02-28T04:22:09;5.53;;;3.70;;
10440;SDS011;5268;49.346;9.522;2023-02-28T04:27:11;4.70;;;3.80;;
10440;SDS011;5268;49.346;9.522;2023-02-28T04:32:15;5.77;;;3.83;;
10440;SDS011;5268;49.346;9.522;2023-02-28T04:37:19;4.60;;;3.40;;
10440;SDS011;5268;49.346;9.522;2023-02-28T04:42:21;5.10;;;3.67;;
10440;SDS011;5268;49.346;9.522;2023-02-28T04:47:23;6.03;;;3.83;;
10440;SDS011;5268;49.346;9.522;2023-02-28T04:52:26;6.00;;;3.70;;
10440;SDS011;5268;49.346;9.522;2023-02-28T04:57:28;6.27;;;3.50;;
10440;SDS011;5268;49.346;9.522;2023-02-28T05:02:31;4.03;;;3.50;;
10440;SDS011;5268;49.346;9.522;2023-02-28T05:07:37;5.20;;;3.97;;
10440;SDS011;5268;49.346;9.522;2023-02-28T05:12:39;5.60;;;3.70;;
10440;SDS011;5268;49.346;9.522;2023-02-28T05:17:41;5.20;;;3.97;;
10440;SDS011;5268;49.346;9.522;2023-02-28T05:22:44;5.07;;;3.90;;
10440;SDS011;5268;49.346;9.522;2023-02-28T05:27:47;5.83;;;3.83;;
10440;SDS011;5268;49.346;9.522;2023-02-28T05:32:49;4.43;;;3.50;;
10440;SDS011;5268;49.346;9.522;2023-02-28T05:37:54;6.10;;;3.90;;
10440;SDS011;5268;49.346;9.522;2023-02-28T05:42:56;4.27;;;3.87;;
10440;SDS011;5268;49.346;9.522;2023-02-28T05:47:58;7.10;;;3.80;;
10440;SDS011;5268;49.346;9.522;2023-02-28T05:53:01;4.23;;;3.23;;
10440;SDS011;5268;49.346;9.522;2023-02-28T05:58:03;4.63;;;3.77;;
10440;SDS011;5268;49.346;9.522;2023-02-28T06:03:05;5.00;;;3.90;;
10440;SDS011;5268;49.346;9.522;2023-02-28T06:08:08;5.63;;;3.73;;
10440;SDS011;5268;49.346;9.522;2023-02-28T06:13:10;5.57;;;3.90;;
10440;SDS011;5268;49.346;9.522;2023-02-28T06:18:12;4.60;;;3.50;;
10440;SDS011;5268;49.346;9.522;2023-02-28T06:23:16;5.00;;;3.70;;
10440;SDS011;5268;49.346;9.522;2023-02-28T06:28:18;4.23;;;3.43;;
10440;SDS011;5268;49.346;9.522;2023-02-28T06:33:20;4.33;;;3.70;;
10440;SDS011;5268;49.346;9.522;2023-02-28T06:38:24;5.87;;;3.90;;
10440;SDS011;5268;49.346;9.522;2023-02-28T06:43:27;4.27;;;3.53;;
10440;SDS011;5268;49.346;9.522;2023-02-28T06:48:30;5.10;;;3.90;;
10440;SDS011;5268;49.346;9.522;2023-02-28T06:53:33;5.73;;;4.00;;
10440;SDS011;5268;49.346;9.522;2023-02-28T06:58:35;5.93;;;4.63;;
10440;SDS011;5268;49.346;9.522;2023-02-28T07:03:37;4.67;;;3.87;;
10440;SDS011;5268;49.346;9.522;2023-02-28T07:08:41;6.23;;;4.53;;
10440;SDS011;5268;49.346;9.522;2023-02-28T07:13:43;4.40;;;3.70;;
10440;SDS011;5268;49.346;9.522;2023-02-28T07:18:46;6.63;;;4.20;;
10440;SDS011;5268;49.346;9.522;2023-02-28T07:23:50;6.07;;;4.27;;
10440;SDS011;5268;49.346;9.522;2023-02-28T07:28:52;5.95;;;4.32;;
10440;SDS011;5268;49.346;9.522;2023-02-28T07:33:54;4.95;;;4.30;;
10440;SDS011;5268;49.346;9.522;2023-02-28T07:38:58;5.55;;;4.30;;
10440;SDS011;5268;49.346;9.522;2023-02-28T07:44:00;5.65;;;4.28;;
10440;SDS011;5268;49.346;9.522;2023-02-28T07:49:03;5.32;;;4.35;;
10440;SDS011;5268;49.346;9.522;2023-02-28T07:54:07;6.75;;;4.20;;
10440;SDS011;5268;49.346;9.522;2023-02-28T07:59:09;6.38;;;4.55;;
10440;SDS011;5268;49.346;9.522;2023-02-28T08:04:11;5.63;;;4.28;;
10440;SDS011;5268;49.346;9.522;2023-02-28T08:09:14;6.72;;;4.88;;
10440;SDS011;5268;49.346;9.522;2023-02-28T08:14:16;5.72;;;4.85;;
10440;SDS011;5268;49.346;9.522;2023-02-28T08:19:18;5.50;;;4.53;;
10440;SDS011;5268;49.346;9.522;2023-02-28T08:24:22;6.25;;;4.70;;
10440;SDS011;5268;49.346;9.522;2023-02-28T08:29:24;6.20;;;3.67;;
10440;SDS011;5268;49.346;9.522;2023-02-28T08:34:26;5.53;;;4.65;;
10440;SDS011;5268;49.346;9.522;2023-02-28T08:39:29;5.20;;;4.40;;
10440;SDS011;5268;49.346;9.522;2023-02-28T08:44:31;4.43;;;3.75;;
10440;SDS011;5268;49.346;9.522;2023-02-28T08:49:34;6.18;;;5.00;;
10440;SDS011;5268;49.346;9.522;2023-02-28T08:54:37;6.35;;;5.10;;
10440;SDS011;5268;49.346;9.522;2023-02-28T08:59:39;7.30;;;5.15;;
10440;SDS011;5268;49.346;9.522;2023-02-28T09:04:41;6.35;;;5.10;;
10440;SDS011;5268;49.346;9.522;2023-02-28T09:09:46;6.30;;;5.00;;
10440;SDS011;5268;49.346;9.522;2023-02-28T09:14:57;7.70;;;5.53;;
10440;SDS011;5268;49.346;9.522;2023-02-28T09:19:59;6.40;;;4.82;;
10440;SDS011;5268;49.346;9.522;2023-02-28T09:25:03;6.32;;;4.95;;
10440;SDS011;5268;49.346;9.522;2023-02-28T09:30:06;6.28;;;4.95;;
10440;SDS011;5268;49.346;9.522;2023-02-28T09:35:09;7.82;;;5.70;;
10440;SDS011;5268;49.346;9.522;2023-02-28T09:40:16;5.68;;;5.00;;
10440;SDS011;5268;49.346;9.522;2023-02-28T09:45:21;6.15;;;5.03;;
10440;SDS011;5268;49.346;9.522;2023-02-28T09:50:29;7.40;;;5.40;;
10440;SDS011;5268;49.346;9.522;2023-02-28T09:55:37;7.03;;;4.25;;
10440;SDS011;5268;49.346;9.522;2023-02-28T10:00:43;5.78;;;4.57;;
10440;SDS011;5268;49.346;9.522;2023-02-28T10:05:48;6.97;;;5.55;;
10440;SDS011;5268;49.346;9.522;2023-02-28T10:10:56;7.72;;;5.60;;
10440;SDS011;5268;49.346;9.522;2023-02-28T10:16:01;8.13;;;5.53;;
10440;SDS011;5268;49.346;9.522;2023-02-28T10:21:09;5.88;;;4.50;;
10440;SDS011;5268;49.346;9.522;2023-02-28T10:26:21;5.07;;;3.97;;
10440;SDS011;5268;49.346;9.522;2023-02-28T10:31:27;6.68;;;5.88;;
10440;SDS011;5268;49.346;9.522;2023-02-28T10:36:29;7.55;;;5.70;;
10440;SDS011;5268;49.346;9.522;2023-02-28T10:41:33;5.30;;;4.40;;
10440;SDS011;5268;49.346;9.522;2023-02-28T10:46:36;7.30;;;6.25;;
10440;SDS011;5268;49.346;9.522;2023-02-28T10:51:40;8.88;;;6.65;;
10440;SDS011;5268;49.346;9.522;2023-02-28T10:56:44;6.45;;;5.05;;
10440;SDS011;5268;49.346;9.522;2023-02-28T11:01:47;10.02;;;5.78;;
10440;SDS011;5268;49.346;9.522;2023-02-28T11:06:56;7.95;;;6.45;;
10440;SDS011;5268;49.346;9.522;2023-02-28T11:12:01;7.25;;;5.53;;
10440;SDS011;5268;49.346;9.522;2023-02-28T11:17:11;8.15;;;6.57;;
10440;SDS011;5268;49.346;9.522;2023-02-28T11:22:17;7.10;;;5.80;;
10440;SDS011;5268;49.346;9.522;2023-02-28T11:27:33;8.20;;;6.60;;
10440;SDS011;5268;49.346;9.522;2023-02-28T11:32:48;8.02;;;5.90;;
10440;SDS011;5268;49.346;9.522;2023-02-28T11:37:50;10.25;;;6.78;;
10440;SDS011;5268;49.346;9.522;2023-02-28T11:42:57;7.80;;;6.40;;
10440;SDS011;5268;49.346;9.522;2023-02-28T11:48:09;8.73;;;6.90;;
10440;SDS011;5268;49.346;9.522;2023-02-28T11:53:21;8.13;;;6.97;;
10440;SDS011;5268;49.346;9.522;2023-02-28T11:58:36;8.80;;;6.50;;
10440;SDS011;5268;49.346;9.522;2023-02-28T12:03:52;7.68;;;6.20;;
10440;SDS011;5268;49.346;9.522;2023-02-28T12:09:13;8.38;;;7.32;;
10440;SDS011;5268;49.346;9.522;2023-02-28T12:14:39;8.60;;;7.30;;
10440;SDS011;5268;49.346;9.522;2023-02-28T12:19:55;6.93;;;5.63;;
10440;SDS011;5268;49.346;9.522;2023-02-28T12:25:22;8.27;;;6.57;;
10440;SDS011;5268;49.346;9.522;2023-02-28T12:30:41;8.65;;;6.55;;
10440;SDS011;5268;49.346;9.522;2023-02-28T12:35:48;9.38;;;7.43;;
10440;SDS011;5268;49.346;9.522;2023-02-28T12:40:56;9.90;;;7.30;;
10440;SDS011;5268;49.346;9.522;2023-02-28T12:46:05;9.57;;;5.55;;
10440;SDS011;5268;49.346;9.522;2023-02-28T12:51:11;7.43;;;6.50;;
10440;SDS011;5268;49.346;9.522;2023-02-28T12:56:15;10.13;;;6.85;;
10440;SDS011;5268;49.346;9.522;2023-02-28T13:01:31;8.05;;;6.25;;
10440;SDS011;5268;49.346;9.522;2023-02-28T13:07:00;8.35;;;6.88;;
10440;SDS011;5268;49.346;9.522;2023-02-28T13:12:29;9.00;;;7.47;;
10440;SDS011;5268;49.346;9.522;2023-02-28T13:17:32;9.70;;;7.70;;
10440;SDS011;5268;49.346;9.522;2023-02-28T13:22:44;7.70;;;5.95;;
10440;SDS011;5268;49.346;9.522;2023-02-28T13:27:48;8.50;;;7.00;;
10440;SDS011;5268;49.346;9.522;2023-02-28T13:38:33;11.75;;;9.65;;
10440;SDS011;5268;49.346;9.522;2023-02-28T13:49:23;9.70;;;6.80;;
10440;SDS011;5268;49.346;9.522;2023-02-28T13:54:34;7.80;;;6.53;;
10440;SDS011;5268;49.346;9.522;2023-02-28T13:59:47;10.25;;;8.30;;
10440;SDS011;5268;49.346;9.522;2023-02-28T14:05:00;9.35;;;7.70;;
10440;SDS011;5268;49.346;9.522;2023-02-28T14:10:06;9.00;;;7.20;;
10440;SDS011;5268;49.346;9.522;2023-02-28T14:15:26;7.15;;;6.15;;
10440;SDS011;5268;49.346;9.522;2023-02-28T14:20:45;7.35;;;6.15;;
10440;SDS011;5268;49.346;9.522;2023-02-28T14:25:51;8.80;;;6.65;;
10440;SDS011;5268;49.346;9.522;2023-02-28T14:31:06;8.20;;;6.90;;
10440;SDS011;5268;49.346;9.522;2023-02-28T14:36:16;8.73;;;6.65;;
10440;SDS011;5268;49.346;9.522;2023-02-28T14:41:23;7.25;;;6.15;;
10440;SDS011;5268;49.346;9.522;2023-02-28T14:46:34;9.43;;;6.85;;
10440;SDS011;5268;49.346;9.522;2023-02-28T14:51:40;9.43;;;7.00;;
10440;SDS011;5268;49.346;9.522;2023-02-28T14:56:43;7.40;;;6.57;;
10440;SDS011;5268;49.346;9.522;2023-02-28T15:01:49;8.82;;;6.47;;
10440;SDS011;5268;49.346;9.522;2023-02-28T15:12:11;7.57;;;6.25;;
10440;SDS011;5268;49.346;9.522;2023-02-28T15:17:18;7.63;;;6.55;;
10440;SDS011;5268;49.346;9.522;2023-02-28T15:22:26;7.55;;;6.50;;
10440;SDS011;5268;49.346;9.522;2023-02-28T15:27:31;8.15;;;6.93;;
10440;SDS011;5268;49.346;9.522;2023-02-28T15:32:36;7.32;;;6.07;;
10440;SDS011;5268;49.346;9.522;2023-02-28T15:37:45;8.25;;;6.93;;
10440;SDS011;5268;49.346;9.522;2023-02-28T15:48:15;7.88;;;7.03;;
10440;SDS011;5268;49.346;9.522;2023-02-28T15:53:22;10.07;;;6.60;;
10440;SDS011;5268;49.346;9.522;2023-02-28T15:58:27;9.45;;;6.47;;
10440;SDS011;5268;49.346;9.522;2023-02-28T16:03:35;11.77;;;6.65;;
10440;SDS011;5268;49.346;9.522;2023-02-28T16:08:42;10.18;;;7.32;;
10440;SDS011;5268;49.346;9.522;2023-02-28T16:13:46;7.78;;;6.30;;
10440;SDS011;5268;49.346;9.522;2023-02-28T16:18:48;8.90;;;7.05;;
10440;SDS011;5268;49.346;9.522;2023-02-28T16:23:51;7.20;;;6.13;;
10440;SDS011;5268;49.346;9.522;2023-02-28T16:28:53;9.07;;;7.20;;
10440;SDS011;5268;49.346;9.522;2023-02-28T16:33:56;11.82;;;9.13;;
10440;SDS011;5268;49.346;9.522;2023-02-28T16:38:59;10.52;;;8.27;;
10440;SDS011;5268;49.346;9.522;2023-02-28T16:44:02;7.97;;;7.18;;
10440;SDS011;5268;49.346;9.522;2023-02-28T16:49:10;8.02;;;6.90;;
10440;SDS011;5268;49.346;9.522;2023-02-28T16:54:14;8.15;;;6.68;;
10440;SDS011;5268;49.346;9.522;2023-02-28T16:59:17;8.20;;;6.60;;
10440;SDS011;5268;49.346;9.522;2023-02-28T17:04:22;8.27;;;6.63;;
10440;SDS011;5268;49.346;9.522;2023-02-28T17:09:26;8.45;;;7.18;;
10440;SDS011;5268;49.346;9.522;2023-02-28T17:14:28;9.48;;;7.00;;
10440;SDS011;5268;49.346;9.522;2023-02-28T17:19:30;8.98;;;7.03;;
10440;SDS011;5268;49.346;9.522;2023-02-28T17:24:35;9.18;;;7.50;;
10440;SDS011;5268;49.346;9.522;2023-02-28T17:29:37;8.98;;;7.13;;
10440;SDS011;5268;49.346;9.522;2023-02-28T17:34:39;8.20;;;7.35;;
10440;SDS011;5268;49.346;9.522;2023-02-28T17:39:42;9.57;;;7.57;;
10440;SDS011;5268;49.346;9.522;2023-02-28T17:44:44;9.38;;;7.75;;
10440;SDS011;5268;49.346;9.522;2023-02-28T17:49:46;23.17;;;16.48;;
10440;SDS011;5268;49.346;9.522;2023-02-28T17:54:49;14.52;;;11.65;;
10440;SDS011;5268;49.346;9.522;2023-02-28T17:59:51;18.75;;;11.07;;
10440;SDS011;5268;49.346;9.522;2023-02-28T18:04:53;23.77;;;16.55;;
10440;SDS011;5268;49.346;9.522;2023-02-28T18:09:56;22.33;;;16.65;;
10440;SDS011;5268;49.346;9.522;2023-02-28T18:14:59;21.92;;;15.57;;
10440;SDS011;5268;49.346;9.522;2023-02-28T18:20:00;13.68;;;9.82;;
10440;SDS011;5268;49.346;9.522;2023-02-28T18:25:06;12.52;;;8.15;;
10440;SDS011;5268;49.346;9.522;2023-02-28T18:30:13;12.93;;;9.32;;
10440;SDS011;5268;49.346;9.522;2023-02-28T18:35:16;12.63;;;8.82;;
10440;SDS011;5268;49.346;9.522;2023-02-28T18:40:34;15.13;;;9.52;;
10440;SDS011;5268;49.346;9.522;2023-02-28T18:45:37;12.30;;;8.73;;
10440;SDS011;5268;49.346;9.522;2023-02-28T18:50:40;13.77;;;10.45;;
10440;SDS011;5268;49.346;9.522;2023-02-28T18:55:44;12.35;;;10.32;;
10440;SDS011;5268;49.346;9.522;2023-02-28T19:00:46;9.75;;;7.57;;
10440;SDS011;5268;49.346;9.522;2023-02-28T19:05:48;9.50;;;7.32;;
10440;SDS011;5268;49.346;9.522;2023-02-28T19:10:56;9.65;;;7.57;;
10440;SDS011;5268;49.346;9.522;2023-02-28T19:15:59;9.88;;;7.70;;
10440;SDS011;5268;49.346;9.522;2023-02-28T19:21:02;11.35;;;9.27;;
10440;SDS011;5268;49.346;9.522;2023-02-28T19:26:09;9.35;;;7.50;;
10440;SDS011;5268;49.346;9.522;2023-02-28T19:31:12;9.32;;;7.40;;
10440;SDS011;5268;49.346;9.522;2023-02-28T19:36:16;11.02;;;7.22;;
10440;SDS011;5268;49.346;9.522;2023-02-28T19:41:19;10.98;;;9.00;;
10440;SDS011;5268;49.346;9.522;2023-02-28T19:46:21;18.52;;;13.30;;
10440;SDS011;5268;49.346;9.522;2023-02-28T19:51:23;11.75;;;8.70;;
10440;SDS011;5268;49.346;9.522;2023-02-28T19:56:28;19.13;;;12.80;;
10440;SDS011;5268;49.346;9.522;2023-02-28T20:01:30;13.43;;;9.57;;
10440;SDS011;5268;49.346;9.522;2023-02-28T20:06:32;16.27;;;11.50;;
10440;SDS011;5268;49.346;9.522;2023-02-28T20:11:36;19.88;;;13.63;;
10440;SDS011;5268;49.346;9.522;2023-02-28T20:16:38;10.93;;;8.38;;
10440;SDS011;5268;49.346;9.522;2023-02-28T20:21:42;10.98;;;8.43;;
10440;SDS011;5268;49.346;9.522;2023-02-28T20:26:45;10.15;;;7.55;;
10440;SDS011;5268;49.346;9.522;2023-02-28T20:31:48;13.27;;;10.90;;
10440;SDS011;5268;49.346;9.522;2023-02-28T20:36:50;21.58;;;14.85;;
10440;SDS011;5268;49.346;9.522;2023-02-28T20:41:53;13.80;;;9.05;;
10440;SDS011;5268;49.346;9.522;2023-02-28T20:46:55;13.82;;;9.73;;
10440;SDS011;5268;49.346;9.522;2023-02-28T20:51:57;11.05;;;8.27;;
10440;SDS011;5268;49.346;9.522;2023-02-28T20:57:00;14.00;;;8.85;;
10440;SDS011;5268;49.346;9.522;2023-02-28T21:02:02;12.07;;;9.02;;
10440;SDS011;5268;49.346;9.522;2023-02-28T21:07:04;11.82;;;10.35;;
10440;SDS011;5268;49.346;9.522;2023-02-28T21:12:08;16.77;;;13.13;;
10440;SDS011;5268;49.346;9.522;2023-02-28T21:17:10;17.70;;;13.50;;
10440;SDS011;5268;49.346;9.522;2023-02-28T21:22:12;21.15;;;13.88;;
10440;SDS011;5268;49.346;9.522;2023-02-28T21:27:16;15.23;;;9.45;;
10440;SDS011;5268;49.346;9.522;2023-02-28T21:32:18;21.65;;;15.10;;
10440;SDS011;5268;49.346;9.522;2023-02-28T21:37:20;15.17;;;10.83;;
10440;SDS011;5268;49.346;9.522;2023-02-28T21:42:23;10.53;;;7.77;;
10440;SDS011;5268;49.346;9.522;2023-02-28T21:47:26;12.47;;;9.13;;
10440;SDS011;5268;49.346;9.522;2023-02-28T21:52:29;12.37;;;8.27;;
10440;SDS011;5268;49.346;9.522;2023-02-28T21:57:32;13.63;;;8.70;;
10440;SDS011;5268;49.346;9.522;2023-02-28T22:02:35;12.20;;;8.20;;
10440;SDS011;5268;49.346;9.522;2023-02-28T22:07:37;10.70;;;8.18;;
10440;SDS011;5268;49.346;9.522;2023-02-28T22:12:42;12.13;;;8.03;;
10440;SDS011;5268;49.346;9.522;2023-02-28T22:17:44;13.67;;;8.43;;
10440;SDS011;5268;49.346;9.522;2023-02-28T22:22:46;13.40;;;9.87;;
10440;SDS011;5268;49.346;9.522;2023-02-28T22:27:50;13.40;;;9.90;;
10440;SDS011;5268;49.346;9.522;2023-02-28T22:32:52;13.67;;;8.87;;
10440;SDS011;5268;49.346;9.522;2023-02-28T22:37:54;9.73;;;7.47;;
10440;SDS011;5268;49.346;9.522;2023-02-28T22:43:00;9.03;;;7.20;;
10440;SDS011;5268;49.346;9.522;2023-02-28T22:48:02;9.23;;;7.03;;
10440;SDS011;5268;49.346;9.522;2023-02-28T22:53:05;12.27;;;7.80;;
